Time;durP1;ratioP1;P1;durP2;ratioP2;P2;SDS_P1;SDS_P2;PMS_P1;PMS_P2;Temp;Humidity;BMP_temperature;BMP_pressure;BME280_temperature;BME280_humidity;BME280_pressure;Samples;Min_cycle;Max_cycle;Signal;HPM_P1;HPM_P2
2022/06/18 00:02:15;;;;;;;1.83;1.08;;;;;;;31.61;22.64;98845.19;5090475;28;20020;-77
2022/06/18 00:04:43;;;;;;;1.65;1.00;;;;;;;31.65;22.81;98846.63;5094119;28;20091;-77
2022/06/18 00:07:18;;;;;;;1.83;1.23;;;;;;;31.35;22.93;98848.22;5091859;28;20050;-77
2022/06/18 00:09:50;;;;;;;1.27;1.17;;;;;;;31.14;22.92;98851.91;5073625;28;20040;-77
2022/06/18 00:15:22;;;;;;;1.45;1.17;;;;;;;31.23;22.41;98845.47;5093701;28;20086;-77
2022/06/18 00:17:48;;;;;;;1.30;1.20;;;;;;;31.04;23.16;98841.75;5105581;28;20051;-77
2022/06/18 00:20:16;;;;;;;3.30;1.10;;;;;;;30.86;23.55;98843.63;5095505;28;20032;-77
2022/06/18 00:22:49;;;;;;;1.23;1.13;;;;;;;30.92;22.54;98836.16;5091540;28;20054;-77
2022/06/18 00:25:22;;;;;;;1.85;1.00;;;;;;;31.03;23.15;98836.53;5088965;28;20036;-77
2022/06/18 00:27:48;;;;;;;2.92;1.90;;;;;;;31.06;23.31;98842.09;5091770;28;20518;-77
2022/06/18 00:30:20;;;;;;;3.63;1.48;;;;;;;31.05;22.89;98834.81;5091556;28;20077;-77
2022/06/18 00:32:46;;;;;;;1.33;1.10;;;;;;;31.10;22.67;98836.25;5091142;28;20032;-77
2022/06/18 00:35:14;;;;;;;1.88;1.35;;;;;;;30.88;23.26;98841.16;5092429;28;20514;-77
2022/06/18 00:37:42;;;;;;;4.28;1.00;;;;;;;30.73;22.98;98838.84;5095499;28;20039;-77
2022/06/18 00:40:21;;;;;;;3.08;1.08;;;;;;;30.85;22.80;98834.34;5094385;28;20039;-77
2022/06/18 00:42:48;;;;;;;1.33;1.23;;;;;;;30.96;22.77;98833.97;5100300;28;20027;-77
2022/06/18 00:45:20;;;;;;;3.95;1.20;;;;;;;30.64;22.74;98841.59;5095878;28;20039;-77
2022/06/18 00:48:26;;;;;;;1.45;1.10;;;;;;;30.41;23.30;98835.59;5103649;28;20074;-77
2022/06/18 00:50:56;;;;;;;2.08;1.00;;;;;;;30.52;22.94;98833.97;5082004;28;20107;-77
2022/06/18 00:53:36;;;;;;;1.15;1.00;;;;;;;30.57;22.76;98839.00;5091752;28;20476;-77
2022/06/18 00:56:14;;;;;;;2.10;1.15;;;;;;;30.65;22.73;98828.22;5092984;28;20446;-77
2022/06/18 00:59:02;;;;;;;1.42;1.10;;;;;;;30.82;22.29;98828.81;5092771;28;20031;-77
2022/06/18 01:01:37;;;;;;;1.65;1.00;;;;;;;30.71;22.15;98835.66;5093802;28;20498;-77
2022/06/18 01:04:33;;;;;;;1.88;1.20;;;;;;;30.45;22.29;98839.88;5090341;28;20063;-77
2022/06/18 01:07:15;;;;;;;3.10;1.15;;;;;;;30.49;23.12;98834.06;5091535;28;20036;-76
2022/06/18 01:09:44;;;;;;;2.90;1.67;;;;;;;30.44;23.14;98838.28;5085600;28;20047;-77
2022/06/18 01:12:11;;;;;;;1.10;1.00;;;;;;;30.21;23.26;98838.69;5086251;28;20053;-77
2022/06/18 01:14:38;;;;;;;2.80;1.33;;;;;;;30.09;23.43;98839.50;5090165;28;20028;-77
2022/06/18 01:17:06;;;;;;;1.52;1.10;;;;;;;29.83;23.87;98835.94;5083767;28;20036;-77
2022/06/18 01:19:42;;;;;;;1.95;1.08;;;;;;;29.77;24.06;98840.59;5089221;28;20403;-77
2022/06/18 01:22:42;;;;;;;1.20;1.10;;;;;;;29.95;23.09;98837.97;5086363;28;21729;-77
2022/06/18 01:25:09;;;;;;;3.15;1.20;;;;;;;30.21;22.98;98835.84;5085516;28;20047;-77
2022/06/18 01:27:37;;;;;;;4.32;1.35;;;;;;;30.39;22.97;98833.19;5092258;28;20522;-77
2022/06/18 01:30:14;;;;;;;3.03;1.25;;;;;;;30.45;22.73;98822.88;5092799;28;20047;-77
2022/06/18 01:32:44;;;;;;;2.25;1.65;;;;;;;30.27;23.36;98834.00;5087583;28;20403;-77
2022/06/18 01:35:12;;;;;;;2.40;1.13;;;;;;;30.09;23.25;98828.19;5090307;28;20024;-77
2022/06/18 01:37:38;;;;;;;1.98;1.42;;;;;;;30.17;23.09;98815.38;5092892;28;20123;-77
2022/06/18 01:40:08;;;;;;;4.18;1.20;;;;;;;30.37;22.95;98817.91;5095701;28;20085;-77
2022/06/18 01:42:46;;;;;;;1.20;1.10;;;;;;;30.41;22.62;98816.53;5099185;28;20023;-77
2022/06/18 01:45:16;;;;;;;2.83;1.17;;;;;;;30.46;23.13;98810.28;5091829;28;20332;-77
2022/06/18 01:47:49;;;;;;;4.23;0.93;;;;;;;30.59;22.69;98810.22;5094658;28;20046;-77
2022/06/18 01:50:24;;;;;;;4.05;1.42;;;;;;;30.40;22.44;98817.78;5088200;28;20103;-77
2022/06/18 01:53:00;;;;;;;2.58;0.90;;;;;;;30.15;22.94;98812.19;5095211;28;20055;-77
2022/06/18 01:55:32;;;;;;;1.75;0.80;;;;;;;29.84;23.53;98811.25;5091698;28;20024;-77
2022/06/18 01:58:10;;;;;;;1.65;1.00;;;;;;;29.88;23.29;98814.75;5093585;28;20395;-77
2022/06/18 02:00:39;;;;;;;1.10;0.95;;;;;;;29.89;23.53;98805.81;5096469;28;20173;-77
2022/06/18 02:03:06;;;;;;;1.38;1.27;;;;;;;29.93;22.89;98806.47;5095282;28;20103;-77
2022/06/18 02:05:33;;;;;;;1.75;1.13;;;;;;;29.75;23.10;98799.81;5091353;28;20036;-77
2022/06/18 02:08:00;;;;;;;1.23;1.05;;;;;;;29.87;23.20;98799.03;5094780;28;20031;-77
2022/06/18 02:10:36;;;;;;;0.93;0.82;;;;;;;29.84;22.98;98800.72;5095917;28;20044;-77
2022/06/18 02:13:04;;;;;;;0.95;0.90;;;;;;;29.95;22.82;98797.50;5096455;28;20092;-77
2022/06/18 02:15:35;;;;;;;1.52;0.95;;;;;;;29.96;22.74;98802.75;5098886;28;20016;-77
2022/06/18 02:18:03;;;;;;;;;;;;;;;29.98;23.42;98802.28;5099558;28;20031;-77
2022/06/18 02:20:31;;;;;;;1.52;0.90;;;;;;;30.12;22.63;98798.16;5095061;28;20338;-77
2022/06/18 02:22:58;;;;;;;2.58;1.05;;;;;;;30.26;22.59;98800.47;5094247;28;20028;-77
2022/06/18 02:25:27;;;;;;;0.90;0.82;;;;;;;30.29;22.43;98802.41;5095376;28;20447;-77
2022/06/18 02:27:58;;;;;;;1.98;1.55;;;;;;;30.28;22.60;98803.63;5099429;28;20415;-77
2022/06/18 02:30:28;;;;;;;1.13;0.90;;;;;;;30.46;22.20;98801.78;5096183;28;20028;-77
2022/06/18 02:33:06;;;;;;;0.88;0.88;;;;;;;30.47;22.06;98796.91;5097587;28;20031;-77
2022/06/18 02:35:33;;;;;;;1.13;0.70;;;;;;;30.23;22.65;98785.19;5094819;28;20403;-77
2022/06/18 02:38:00;;;;;;;1.35;0.85;;;;;;;30.19;22.60;98800.72;5097520;28;20034;-77
2022/06/18 02:40:29;;;;;;;2.70;1.20;;;;;;;30.22;22.44;98802.66;5094675;28;20059;-77
2022/06/18 02:43:00;;;;;;;2.30;0.80;;;;;;;30.15;22.50;98800.06;5095020;28;20035;-77
2022/06/18 02:45:28;;;;;;;0.70;0.70;;;;;;;30.03;22.93;98802.50;5098265;28;20101;-77
2022/06/18 02:47:59;;;;;;;0.93;0.80;;;;;;;29.91;23.09;98800.47;5095443;28;20027;-77
2022/06/18 02:50:31;;;;;;;2.72;1.25;;;;;;;29.85;23.17;98795.88;5095063;28;20028;-77
2022/06/18 02:53:01;;;;;;;2.05;0.90;;;;;;;29.97;23.17;98798.66;5094638;28;20034;-77
2022/06/18 02:55:41;;;;;;;1.00;0.70;;;;;;;30.12;22.78;98801.78;5093160;28;20085;-77
2022/06/18 02:58:29;;;;;;;1.05;0.65;;;;;;;30.20;22.50;98800.25;5092558;28;20481;-77
2022/06/18 03:01:05;;;;;;;1.38;0.70;;;;;;;30.42;22.37;98803.94;5097922;28;20445;-77
2022/06/18 03:03:35;;;;;;;2.60;0.70;;;;;;;30.60;22.80;98789.91;5094951;28;20046;-77
2022/06/18 03:06:02;;;;;;;0.70;0.70;;;;;;;30.56;22.50;98794.13;5095940;28;20040;-77
2022/06/18 03:08:29;;;;;;;1.90;0.90;;;;;;;30.62;22.57;98786.63;5094240;28;21421;-77
2022/06/18 03:13:41;;;;;;;1.02;0.70;;;;;;;30.50;22.65;98796.00;5093797;28;20043;-77
2022/06/18 03:16:10;;;;;;;0.85;0.80;;;;;;;30.73;22.28;98799.16;5092201;28;20551;-77
2022/06/18 03:18:38;;;;;;;0.88;0.60;;;;;;;30.83;22.64;98790.69;5096123;28;20111;-77
2022/06/18 03:21:27;;;;;;;1.00;0.77;;;;;;;30.76;22.58;98792.53;5090479;28;20040;-77
2022/06/18 03:23:54;;;;;;;0.70;0.70;;;;;;;30.94;22.60;98796.78;5090979;28;20613;-77
2022/06/18 03:26:20;;;;;;;1.20;0.90;;;;;;;30.81;22.46;98788.31;5091911;28;20145;-77
2022/06/18 03:29:06;;;;;;;2.33;0.77;;;;;;;30.61;22.40;98785.03;5087696;28;20407;-77
2022/06/18 03:31:33;;;;;;;0.88;0.77;;;;;;;30.62;23.04;98787.41;5091204;28;20028;-77
2022/06/18 03:33:59;;;;;;;0.70;0.70;;;;;;;30.77;23.16;98790.50;5090876;28;20023;-77
2022/06/18 03:36:25;;;;;;;1.10;0.73;;;;;;;31.11;22.82;98789.63;5093592;28;20032;-77
2022/06/18 03:38:52;;;;;;;0.63;0.60;;;;;;;31.57;23.15;98788.59;5096779;28;20168;-77
2022/06/18 03:41:20;;;;;;;1.05;0.90;;;;;;;31.73;23.29;98793.19;5092742;28;20086;-77
2022/06/18 03:43:46;;;;;;;1.15;0.73;;;;;;;31.74;23.36;98786.25;5093913;28;20114;-77
2022/06/18 03:46:16;;;;;;;1.15;0.60;;;;;;;31.82;23.54;98791.16;5096247;28;20465;-77
2022/06/18 03:49:00;;;;;;;2.40;0.73;;;;;;;32.10;23.73;98783.50;5094411;28;20553;-77
2022/06/18 03:51:28;;;;;;;0.50;0.50;;;;;;;32.49;23.47;98790.28;5097930;28;20028;-77
2022/06/18 03:53:55;;;;;;;0.82;0.77;;;;;;;32.87;23.44;98787.72;5093798;28;20040;-77
2022/06/18 03:56:24;;;;;;;1.42;0.73;;;;;;;32.86;23.25;98786.13;5091032;28;20036;-77
2022/06/18 03:58:51;;;;;;;1.50;0.80;;;;;;;32.93;23.27;98776.50;5091860;28;20032;-77
2022/06/18 04:01:21;;;;;;;1.10;0.82;;;;;;;32.94;23.38;98781.69;5095805;28;20081;-78
2022/06/18 04:03:48;;;;;;;2.38;0.88;;;;;;;33.04;23.11;98780.44;5090177;28;20032;-77
2022/06/18 04:06:17;;;;;;;2.00;0.80;;;;;;;33.04;23.27;98780.44;5091196;28;20447;-77
2022/06/18 04:08:44;;;;;;;1.92;0.90;;;;;;;33.12;23.62;98787.38;5093627;28;20093;-77
2022/06/18 04:11:12;;;;;;;1.35;0.70;;;;;;;33.37;23.21;98784.09;5091582;27;20395;-77
2022/06/18 04:13:38;;;;;;;0.93;0.90;;;;;;;33.53;23.66;98782.16;5085642;28;20043;-77
2022/06/18 04:16:06;;;;;;;0.80;0.70;;;;;;;33.63;23.36;98789.41;5090007;28;20028;-78
2022/06/18 04:18:32;;;;;;;1.13;1.02;;;;;;;33.71;23.49;98787.75;5092120;28;20063;-77
2022/06/18 04:20:59;;;;;;;1.23;0.70;;;;;;;33.86;23.35;98788.63;5087257;28;20412;-77
2022/06/18 04:23:25;;;;;;;0.85;0.77;;;;;;;34.07;23.30;98784.72;5072810;28;20101;-77
2022/06/18 04:25:52;;;;;;;0.60;0.60;;;;;;;34.23;24.13;98792.81;5091371;28;20044;-77
2022/06/18 04:28:18;;;;;;;0.60;0.60;;;;;;;34.18;23.22;98793.50;5099926;28;20036;-77
2022/06/18 04:30:46;;;;;;;0.80;0.73;;;;;;;33.85;23.68;98801.28;5093579;28;20028;-77
2022/06/18 04:33:13;;;;;;;1.40;0.80;;;;;;;33.81;24.01;98803.53;5090458;28;20040;-77
2022/06/18 04:35:39;;;;;;;0.80;0.80;;;;;;;33.62;24.00;98797.16;5090959;28;20024;-77
2022/06/18 04:38:11;;;;;;;2.35;0.80;;;;;;;33.76;24.06;98796.44;5091964;28;20039;-77
2022/06/18 04:40:37;;;;;;;0.60;0.60;;;;;;;33.85;23.74;98796.38;5090019;28;20032;-77
2022/06/18 04:43:08;;;;;;;1.45;0.77;;;;;;;33.55;24.43;98788.16;5090213;28;20038;-77
2022/06/18 04:45:36;;;;;;;1.25;0.70;;;;;;;34.07;23.75;98798.97;5094514;28;20028;-77
2022/06/18 04:48:04;;;;;;;0.73;0.70;;;;;;;34.80;22.69;98796.28;5093615;28;20059;-77
2022/06/18 04:50:34;;;;;;;1.35;0.60;;;;;;;35.50;22.23;98791.56;5091018;28;20036;-77
2022/06/18 04:53:00;;;;;;;1.10;0.68;;;;;;;35.99;21.94;98791.53;5095057;28;20399;-77
2022/06/18 04:55:26;;;;;;;1.20;0.63;;;;;;;36.35;21.21;98789.38;5090888;28;20119;-77
2022/06/18 04:57:53;;;;;;;0.75;0.60;;;;;;;36.65;19.94;98788.72;5087780;28;20040;-77
2022/06/18 05:00:19;;;;;;;0.40;0.40;;;;;;;36.69;21.12;98794.19;5071970;28;20107;-78
2022/06/18 05:02:45;;;;;;;0.95;0.40;;;;;;;36.85;20.25;98785.03;5082168;28;20025;-78
2022/06/18 05:05:16;;;;;;;1.15;0.50;;;;;;;36.95;19.84;98797.88;5089437;28;20028;-78
2022/06/18 05:07:42;;;;;;;0.55;0.55;;;;;;;37.11;19.97;98797.25;5085442;28;20509;-79
2022/06/18 05:10:10;;;;;;;0.30;0.30;;;;;;;37.29;20.20;98794.03;5091925;28;20468;-78
2022/06/18 05:12:36;;;;;;;0.43;0.43;;;;;;;37.52;19.52;98789.28;5084111;28;20050;-79
2022/06/18 05:15:04;;;;;;;0.32;0.32;;;;;;;37.63;20.20;98785.69;5088959;28;20020;-79
2022/06/18 05:17:32;;;;;;;0.43;0.40;;;;;;;37.65;20.59;98789.63;5083141;28;20075;-79
2022/06/18 05:19:59;;;;;;;0.60;0.40;;;;;;;37.75;19.56;98790.22;5083284;28;20048;-80
2022/06/18 05:22:25;;;;;;;0.47;0.40;;;;;;;37.41;18.76;98791.28;5082557;28;20381;-80
2022/06/18 05:24:52;;;;;;;0.45;0.40;;;;;;;37.16;20.24;98801.47;5078632;28;20605;-79
2022/06/18 05:27:32;;;;;;;0.40;0.40;;;;;;;37.17;20.21;98795.25;5079492;28;20431;-79
2022/06/18 05:29:59;;;;;;;;;;;;;;;37.35;18.71;98786.25;5082118;28;20068;-79
2022/06/18 05:32:25;;;;;;;0.47;0.30;;;;;;;37.47;19.24;98794.97;5084295;28;19961;-79
2022/06/18 05:34:51;;;;;;;0.38;0.32;;;;;;;37.39;19.28;98792.56;5082343;28;20035;-79
2022/06/18 05:37:24;;;;;;;0.50;0.40;;;;;;;37.56;20.06;98786.16;5078862;28;20034;-79
2022/06/18 05:39:50;;;;;;;0.47;0.40;;;;;;;37.86;20.11;98790.31;5078824;28;20025;-79
2022/06/18 05:42:17;;;;;;;0.55;0.30;;;;;;;38.11;19.00;98797.22;5083021;28;20039;-78
2022/06/18 05:44:43;;;;;;;0.50;0.43;;;;;;;38.22;19.46;98795.19;5083026;28;20028;-79
2022/06/18 05:47:19;;;;;;;1.52;0.40;;;;;;;38.30;19.61;98790.53;5082166;28;20032;-79
2022/06/18 05:49:46;;;;;;;0.30;0.30;;;;;;;38.31;19.00;98791.34;5085433;28;20063;-79
2022/06/18 05:52:12;;;;;;;1.02;0.40;;;;;;;37.91;18.91;98792.41;5080760;28;20466;-78
2022/06/18 05:54:38;;;;;;;0.35;0.30;;;;;;;37.61;19.54;98791.16;5080357;28;20127;-79
2022/06/18 05:57:05;;;;;;;0.22;0.22;;;;;;;37.40;19.56;98801.97;5081308;28;20043;-79
2022/06/18 05:59:31;;;;;;;0.40;0.32;;;;;;;37.56;20.41;98786.16;5082597;28;20515;-79
2022/06/18 06:01:58;;;;;;;0.50;0.35;;;;;;;37.76;20.07;98786.06;5081199;28;20036;-79
2022/06/18 06:04:26;;;;;;;1.00;0.30;;;;;;;37.30;18.78;98792.72;5086998;28;20106;-79
2022/06/18 06:06:52;;;;;;;0.63;0.38;;;;;;;37.52;19.91;98791.38;5086018;28;20028;-78
2022/06/18 06:12:09;;;;;;;0.30;0.30;;;;;;;38.23;19.87;98785.25;5081959;28;20093;-81
2022/06/18 06:14:36;;;;;;;0.38;0.30;;;;;;;38.43;19.20;98787.22;5087288;28;20443;-78
2022/06/18 06:17:04;;;;;;;0.32;0.30;;;;;;;37.87;19.58;98789.00;5090136;28;20043;-79
2022/06/18 06:19:30;;;;;;;1.80;0.30;;;;;;;38.16;18.58;98785.00;5090035;28;20094;-79
2022/06/18 06:21:56;;;;;;;0.70;0.30;;;;;;;38.38;19.04;98785.88;5089162;28;20479;-79
2022/06/18 06:24:22;;;;;;;1.45;0.43;;;;;;;38.69;18.34;98782.84;5091835;28;20042;-80
2022/06/18 06:26:48;;;;;;;2.05;0.55;;;;;;;38.85;17.47;98774.81;5088338;28;20556;-79
2022/06/18 06:29:14;;;;;;;1.05;0.40;;;;;;;39.00;17.44;98781.09;5087493;28;20119;-79
2022/06/18 06:31:40;;;;;;;0.73;0.40;;;;;;;39.19;17.64;98776.41;5090576;28;20055;-80
2022/06/18 06:34:06;;;;;;;0.63;0.63;;;;;;;39.37;18.35;98778.78;5088797;28;20437;-79
2022/06/18 06:36:33;;;;;;;0.47;0.47;;;;;;;39.15;16.76;98778.78;5091116;28;20024;-79
2022/06/18 06:38:59;;;;;;;0.85;0.40;;;;;;;39.18;17.84;98774.88;5092008;28;20496;-79
2022/06/18 06:41:28;;;;;;;0.80;0.50;;;;;;;38.92;17.57;98775.09;5090454;28;20071;-79
2022/06/18 06:43:54;;;;;;;1.27;0.55;;;;;;;38.61;17.66;98775.25;5087573;28;20043;-79
2022/06/18 06:46:20;;;;;;;0.85;0.60;;;;;;;38.24;18.52;98777.44;5088003;28;20028;-80
2022/06/18 06:48:47;;;;;;;0.45;0.40;;;;;;;37.87;18.83;98771.81;5089154;28;20403;-79
2022/06/18 06:51:19;;;;;;;0.95;0.50;;;;;;;37.60;17.60;98781.78;5083123;28;20379;-80
2022/06/18 06:53:46;;;;;;;3.17;0.70;;;;;;;37.28;17.90;98771.63;5086847;28;20074;-79
2022/06/18 06:58:59;;;;;;;0.68;0.60;;;;;;;36.45;19.81;98767.94;5081377;28;20085;-78
2022/06/18 07:01:26;;;;;;;0.50;0.40;;;;;;;36.96;19.37;98770.03;5081338;28;20044;-79
2022/06/18 07:03:52;;;;;;;1.83;0.57;;;;;;;36.47;19.67;98765.38;5084194;28;20161;-79
2022/06/18 07:06:19;;;;;;;1.85;0.82;;;;;;;36.89;18.53;98767.59;5081084;28;20165;-79
2022/06/18 07:08:46;;;;;;;1.27;0.52;;;;;;;36.93;19.45;98766.13;5082094;28;20024;-79
2022/06/18 07:11:13;;;;;;;1.27;0.75;;;;;;;37.33;18.78;98763.06;5083715;28;20381;-79
2022/06/18 07:13:40;;;;;;;0.88;0.60;;;;;;;37.31;18.05;98767.75;5083316;28;20043;-79
2022/06/18 07:16:08;;;;;;;1.17;0.70;;;;;;;37.85;19.23;98765.81;5084976;28;20115;-79
2022/06/18 07:18:36;;;;;;;1.00;0.65;;;;;;;38.54;18.65;98759.31;5081546;28;20086;-79
2022/06/18 07:21:05;;;;;;;0.95;0.60;;;;;;;38.91;17.21;98758.38;5085436;28;20086;-80
2022/06/18 07:23:31;;;;;;;0.80;0.60;;;;;;;38.13;16.42;98760.19;5080739;28;20029;-79
2022/06/18 07:25:57;;;;;;;1.05;0.50;;;;;;;37.99;17.16;98753.38;5078355;28;20031;-79
2022/06/18 07:28:24;;;;;;;1.08;0.52;;;;;;;38.21;18.42;98755.56;5083568;28;20036;-79
2022/06/18 07:30:51;;;;;;;0.57;0.57;;;;;;;38.59;17.52;98761.41;5083952;28;20044;-79
2022/06/18 07:33:21;;;;;;;1.13;0.80;;;;;;;37.93;16.21;98761.13;5084304;28;20369;-79
2022/06/18 07:35:48;;;;;;;0.50;0.50;;;;;;;37.51;16.49;98759.06;5084269;28;20127;-79
2022/06/18 07:38:14;;;;;;;0.73;0.57;;;;;;;36.99;17.72;98758.38;5083579;28;20075;-79
2022/06/18 07:40:53;;;;;;;2.35;0.60;;;;;;;36.76;19.00;98767.25;5080061;28;20048;-79
2022/06/18 07:43:21;;;;;;;0.63;0.40;;;;;;;36.95;18.09;98757.81;5084695;28;20036;-80
2022/06/18 07:45:47;;;;;;;2.10;0.50;;;;;;;37.06;17.60;98762.84;5082129;28;20028;-80
2022/06/18 07:48:14;;;;;;;0.80;0.60;;;;;;;36.91;18.60;98762.97;5080688;28;20036;-80
2022/06/18 07:50:46;;;;;;;0.57;0.45;;;;;;;37.58;17.62;98758.56;5078850;28;20056;-79
2022/06/18 07:53:16;;;;;;;0.88;0.60;;;;;;;37.03;17.78;98770.38;5080174;28;20037;-80
2022/06/18 07:55:42;;;;;;;0.50;0.50;;;;;;;37.08;18.31;98769.66;5084384;28;20074;-80
2022/06/18 07:58:08;;;;;;;0.63;0.50;;;;;;;37.15;18.10;98774.13;5083130;28;20429;-80
2022/06/18 08:00:39;;;;;;;0.52;0.52;;;;;;;37.29;18.33;98779.72;5080943;28;20044;-80
2022/06/18 08:03:09;;;;;;;;;;;;;;;37.81;17.79;98777.47;5077656;28;20048;-79
2022/06/18 08:05:37;;;;;;;0.77;0.40;;;;;;;37.60;17.05;98773.19;5082897;28;19919;-78
2022/06/18 08:08:03;;;;;;;0.70;0.43;;;;;;;37.29;19.10;98774.00;5086004;28;20036;-79
2022/06/18 08:10:31;;;;;;;0.88;0.50;;;;;;;36.73;18.88;98780.47;5087813;28;20491;-78
2022/06/18 08:12:57;;;;;;;1.98;0.60;;;;;;;36.99;18.97;98774.78;5085117;28;22151;-80
2022/06/18 08:15:23;;;;;;;1.50;0.50;;;;;;;36.04;20.33;98770.00;5085914;28;20028;-79
2022/06/18 08:17:49;;;;;;;0.68;0.60;;;;;;;36.06;20.25;98768.22;5081980;28;20047;-79
2022/06/18 08:20:15;;;;;;;0.63;0.50;;;;;;;36.53;18.80;98769.06;5085203;28;20036;-80
2022/06/18 08:22:47;;;;;;;3.03;0.65;;;;;;;35.52;20.14;98771.09;5080026;28;20139;-80
2022/06/18 08:25:17;;;;;;;1.15;0.63;;;;;;;35.55;19.80;98773.72;5084885;28;20020;-80
2022/06/18 08:27:46;;;;;;;0.70;0.70;;;;;;;35.51;20.89;98773.16;5082667;28;20036;-80
2022/06/18 08:30:13;;;;;;;1.38;0.82;;;;;;;35.72;20.35;98760.47;5084915;28;20032;-79
2022/06/18 08:32:39;;;;;;;0.90;0.63;;;;;;;35.39;19.90;98768.50;5080701;28;20044;-79
2022/06/18 08:35:06;;;;;;;0.90;0.80;;;;;;;35.19;21.62;98763.53;5083954;28;20028;-80
2022/06/18 08:37:33;;;;;;;1.17;0.65;;;;;;;35.17;21.05;98762.47;5080384;28;20031;-80
2022/06/18 08:40:00;;;;;;;0.93;0.80;;;;;;;36.02;19.78;98755.44;5084250;28;20024;-79
2022/06/18 08:42:35;;;;;;;0.80;0.70;;;;;;;35.96;19.78;98754.56;5083695;28;20103;-79
2022/06/18 08:45:25;;;;;;;1.02;0.55;;;;;;;36.52;18.56;98754.00;5085545;28;20447;-80
2022/06/18 08:48:07;;;;;;;0.50;0.50;;;;;;;37.66;18.46;98744.56;5082580;28;20032;-81
2022/06/18 08:50:42;;;;;;;0.60;0.52;;;;;;;37.38;17.50;98736.59;5087135;28;20063;-80
2022/06/18 08:53:26;;;;;;;3.83;0.73;;;;;;;36.97;18.46;98738.03;5088340;28;20028;-80
2022/06/18 08:56:02;;;;;;;1.90;0.60;;;;;;;37.27;19.03;98736.44;5085108;28;20028;-80
2022/06/18 08:58:34;;;;;;;0.52;0.50;;;;;;;37.63;17.59;98726.31;5082646;28;20060;-79
2022/06/18 09:01:05;;;;;;;0.80;0.60;;;;;;;37.99;16.44;98722.63;5084484;28;20399;-79
2022/06/18 09:03:34;;;;;;;;;;;;;;;38.22;16.10;98723.47;5085551;28;20462;-78
2022/06/18 09:06:06;;;;;;;0.50;0.50;;;;;;;38.65;15.84;98722.00;5086243;28;20437;-78
2022/06/18 09:08:51;;;;;;;0.40;0.40;;;;;;;38.89;17.23;98718.69;5086126;28;20058;-79
2022/06/18 09:11:26;;;;;;;0.28;0.28;;;;;;;38.56;16.03;98727.22;5082555;28;20942;-78
2022/06/18 09:14:10;;;;;;;1.00;0.30;;;;;;;37.76;15.70;98717.25;5081902;28;20136;-79
2022/06/18 09:17:18;;;;;;;1.75;0.40;;;;;;;38.09;14.73;98714.53;5078604;28;20559;-80
2022/06/18 09:19:51;;;;;;;0.25;0.25;;;;;;;38.41;16.24;98709.47;5059507;28;20109;-80
2022/06/18 09:22:19;;;;;;;0.40;0.30;;;;;;;38.54;16.47;98718.34;5085578;28;20072;-80
2022/06/18 09:24:48;;;;;;;0.77;0.38;;;;;;;37.58;16.66;98709.06;5090065;28;20035;-80
2022/06/18 09:27:30;;;;;;;0.60;0.40;;;;;;;38.20;14.45;98710.94;5087066;28;20439;-80
2022/06/18 09:30:29;;;;;;;1.73;0.40;;;;;;;38.26;13.76;98706.00;5084988;28;20099;-80
2022/06/18 09:33:01;;;;;;;1.65;0.77;;;;;;;38.41;14.84;98706.59;5084021;28;20032;-79
2022/06/18 09:36:10;;;;;;;0.25;0.25;;;;;;;38.91;14.54;98700.94;5086449;28;20036;-80
2022/06/18 09:38:43;;;;;;;1.75;0.40;;;;;;;39.30;14.57;98707.47;5057423;28;20101;-79
2022/06/18 09:41:23;;;;;;;0.40;0.40;;;;;;;38.21;14.49;98698.94;5084388;28;20483;-80
2022/06/18 09:43:52;;;;;;;1.70;0.50;;;;;;;37.08;15.70;98686.59;5080891;28;20028;-80
2022/06/18 09:46:40;;;;;;;0.40;0.40;;;;;;;37.89;15.67;98691.78;5078854;28;20294;-80
2022/06/18 09:49:06;;;;;;;0.57;0.40;;;;;;;38.78;14.12;98684.22;5083157;28;20024;-80
2022/06/18 09:51:45;;;;;;;1.15;0.32;;;;;;;38.12;15.44;98695.50;5088778;28;20028;-80
2022/06/18 09:54:14;;;;;;;0.40;0.35;;;;;;;38.67;14.78;98687.81;5082088;28;20027;-81
2022/06/18 09:56:58;;;;;;;0.50;0.50;;;;;;;38.72;14.59;98681.34;5083983;28;20074;-81
2022/06/18 09:59:33;;;;;;;0.35;0.35;;;;;;;38.95;15.86;98687.09;5079892;28;20028;-80
2022/06/18 10:02:00;;;;;;;0.70;0.40;;;;;;;39.36;13.18;98677.41;5093016;28;20036;-80
2022/06/18 10:07:19;;;;;;;0.32;0.30;;;;;;;39.71;13.02;98688.28;5091508;28;20070;-80
2022/06/18 10:09:49;;;;;;;1.23;0.28;;;;;;;40.21;12.82;98679.47;5085729;28;20042;-79
2022/06/18 10:12:24;;;;;;;0.52;0.20;;;;;;;39.87;13.75;98675.16;5089132;28;20028;-81
2022/06/18 10:14:56;;;;;;;2.10;0.30;;;;;;;39.80;15.11;98664.19;5084278;28;20044;-80
2022/06/18 10:17:40;;;;;;;0.22;0.20;;;;;;;39.13;15.29;98672.97;5088386;28;20043;-80
2022/06/18 10:20:24;;;;;;;0.25;0.25;;;;;;;39.73;14.38;98656.91;5091405;28;20032;-80
2022/06/18 10:23:09;;;;;;;0.20;0.20;;;;;;;40.17;14.62;98653.06;5085619;28;20396;-81
2022/06/18 10:25:41;;;;;;;0.30;0.30;;;;;;;39.47;14.32;98647.81;5082983;28;20032;-81
2022/06/18 10:28:28;;;;;;;0.32;0.32;;;;;;;40.00;14.23;98647.38;5088270;28;20120;-81
2022/06/18 10:31:19;;;;;;;0.40;0.30;;;;;;;40.40;14.58;98640.06;5086532;28;20477;-81
2022/06/18 10:34:12;;;;;;;0.50;0.10;;;;;;;40.67;13.53;98635.47;5087318;28;20039;-82
2022/06/18 10:36:50;;;;;;;0.40;0.40;;;;;;;40.47;12.88;98639.53;5088232;28;20035;-82
2022/06/18 10:39:41;;;;;;;0.20;0.20;;;;;;;40.40;14.90;98630.69;5083712;28;20028;-82
2022/06/18 10:42:37;;;;;;;0.73;0.10;;;;;;;40.42;13.14;98631.72;5088780;28;20044;-82
2022/06/18 10:45:39;;;;;;;0.32;0.30;;;;;;;40.82;14.04;98630.06;5075844;28;20063;-81
2022/06/18 10:48:13;;;;;;;0.20;0.20;;;;;;;41.17;14.56;98627.13;5089969;28;20032;-84
2022/06/18 10:50:48;;;;;;;0.13;0.13;;;;;;;41.37;13.91;98623.03;5085633;28;20028;-81
2022/06/18 10:53:16;;;;;;;0.30;0.20;;;;;;;41.44;13.52;98622.44;5087247;28;20058;-81
2022/06/18 10:55:43;;;;;;;0.43;0.30;;;;;;;41.62;12.45;98618.78;5082979;28;20097;-81
2022/06/18 10:58:15;;;;;;;0.20;0.20;;;;;;;41.55;13.92;98622.28;5087371;28;20063;-80
2022/06/18 11:00:54;;;;;;;0.20;0.20;;;;;;;41.40;13.81;98621.97;5086016;28;20067;-80
2022/06/18 11:03:22;;;;;;;0.10;0.10;;;;;;;41.44;14.43;98607.22;5088162;28;20384;-80
2022/06/18 11:05:49;;;;;;;0.20;0.20;;;;;;;41.41;13.41;98614.06;5082009;28;20397;-81
2022/06/18 11:08:24;;;;;;;0.57;0.30;;;;;;;41.72;14.43;98607.69;5086850;28;20052;-82
2022/06/18 11:11:08;;;;;;;0.38;0.20;;;;;;;40.93;15.33;98604.09;5085576;28;20032;-81
2022/06/18 11:13:39;;;;;;;0.20;0.20;;;;;;;40.62;13.10;98611.16;5088685;28;20042;-82
2022/06/18 11:16:16;;;;;;;0.93;0.40;;;;;;;39.22;15.67;98605.84;5087904;28;20040;-82
2022/06/18 11:18:53;;;;;;;0.40;0.40;;;;;;;38.25;17.36;98619.16;5086967;28;20527;-82
2022/06/18 11:21:45;;;;;;;0.47;0.30;;;;;;;38.13;17.29;98620.44;5084229;28;20036;-81
2022/06/18 11:24:11;;;;;;;0.40;0.40;;;;;;;38.96;15.47;98608.22;5086019;28;20028;-81
2022/06/18 11:26:50;;;;;;;0.85;0.40;;;;;;;38.85;14.79;98606.16;5087748;28;20032;-81
2022/06/18 11:29:36;;;;;;;0.60;0.50;;;;;;;38.57;14.94;98600.41;5085295;28;20094;-82
2022/06/18 11:32:15;;;;;;;0.70;0.40;;;;;;;39.13;15.03;98601.16;5081566;28;20407;-81
2022/06/18 11:34:45;;;;;;;1.38;0.30;;;;;;;39.95;14.61;98602.16;5085605;28;20115;-82
2022/06/18 11:37:20;;;;;;;0.68;0.43;;;;;;;40.69;14.98;98595.38;5085255;28;20073;-82
2022/06/18 11:40:03;;;;;;;0.35;0.30;;;;;;;40.65;13.52;98597.78;5085711;28;20063;-81
2022/06/18 11:42:42;;;;;;;1.20;0.35;;;;;;;40.23;13.67;98599.13;5087713;28;20458;-81
2022/06/18 11:45:30;;;;;;;0.40;0.38;;;;;;;40.15;13.08;98591.59;5085629;28;20039;-81
2022/06/18 11:48:10;;;;;;;0.55;0.55;;;;;;;40.36;15.18;98593.53;5081412;28;20633;-81
2022/06/18 11:50:44;;;;;;;0.20;0.20;;;;;;;41.17;12.68;98581.03;5080957;28;20021;-81
2022/06/18 11:53:19;;;;;;;0.30;0.30;;;;;;;41.77;12.73;98577.97;5081784;28;20070;-82
2022/06/18 11:55:58;;;;;;;0.30;0.30;;;;;;;40.37;15.01;98574.97;5083623;28;20067;-82
2022/06/18 11:58:44;;;;;;;1.67;0.20;;;;;;;41.22;13.63;98574.41;5083620;28;20031;-84
2022/06/18 12:01:28;;;;;;;0.90;0.20;;;;;;;41.64;12.55;98569.22;5085433;28;20458;-85
2022/06/18 12:04:03;;;;;;;0.20;0.20;;;;;;;41.34;12.89;98554.91;5083138;28;20067;-84
2022/06/18 12:06:45;;;;;;;0.30;0.30;;;;;;;41.37;14.71;98553.84;5085306;28;20025;-85
2022/06/18 12:09:14;;;;;;;0.32;0.30;;;;;;;42.01;12.94;98555.56;5082753;28;20511;-82
2022/06/18 12:11:49;;;;;;;0.63;0.30;;;;;;;42.06;12.14;98553.94;5082802;28;20373;-83